Hauptseite
METAR-TAF:

METAR-TAF

Flughäfen :

Fliegerhorst Diepholz

Diepholz, Deutschland

Breite: 52-35N, Länge: 008-21E, Höhe: 39 m

Beobachtung

Neuester Wetterbericht von vor 48 Minuten, um 06:20 UTC
Wind 7 kt aus West/Nordwest
Temperatur 17°C
Luftfeuchtigkeit 77%
Luftdruck 1018 hPa
Sichtweite 10 km oder mehr
Leicht bewölkt in der Höhe von 2000 ft

METAR: ETND 180620Z 30007KT 9999 FEW020 17/13 Q1018 BLU+

Zeit: 09:08 (07:08 UTC)

Prognose

Neuester Wetterbericht von vor 3 Stunden und 7 Minuten, um 04:01 UTC
Gültige Prognose vom 18 um 05 UTC bis 18 um 14 UTC
Wind 10 kt aus Nordwest
Sichtweite 10 km oder mehr
Leicht bewölkt in der Höhe von 6000 ft

TAF: ETND 180401Z 1805/1814 32010KT 9999 NSW FEW060 CANCEL BY ETGL

Wetterbeobachtungen und Prognosen von mehr als 4000 Flughäfen (METAR und TAF Bericht).

Die verfügbaren Stationen werden durch gelbe und rote Markierungen auf der Karte dargestellt.

Führen Sie die Maus auf sie, um den Namen der Station zu sehen.

Darauf klicken, um die Beobachtung von Wetterbeobachtungen und Prognosen zu sehen.

Um die Karte zu ändern : klicken Sie auf den grünen Tasten mit einem schwarzen Kreuz Zum Vergrößern, auf den grünen Button mit einem Gedankenstrich zu verkleinern, oder auf die grünen Pfeile für benachbarte Karten.


METAR-TAF: